createdAt,value
2018-04-15T00:00:28.332Z,21.07
2018-04-15T00:02:56.005Z,22.03
2018-04-15T00:05:23.646Z,21.20
2018-04-15T00:07:51.236Z,21.67
2018-04-15T00:10:18.996Z,21.73
2018-04-15T00:12:46.635Z,21.27
2018-04-15T00:15:14.289Z,20.07
2018-04-15T00:17:42.504Z,20.70
2018-04-15T00:20:10.260Z,19.97
2018-04-15T00:22:37.881Z,20.43
2018-04-15T00:25:05.502Z,20.43
2018-04-15T00:27:33.894Z,21.83
2018-04-15T00:30:01.545Z,20.07
2018-04-15T00:32:29.140Z,20.33
2018-04-15T00:34:56.832Z,20.13
2018-04-15T00:37:24.428Z,19.93
2018-04-15T00:39:52.039Z,20.13
2018-04-15T00:42:19.768Z,21.50
2018-04-15T00:44:47.353Z,20.63
2018-04-15T00:47:14.949Z,21.03
2018-04-15T00:49:42.660Z,20.57
2018-04-15T00:52:10.323Z,21.70
2018-04-15T00:54:37.925Z,21.63
2018-04-15T00:57:05.726Z,21.30
2018-04-15T00:59:33.328Z,20.37
2018-04-15T01:02:01.874Z,20.73
2018-04-15T01:04:29.604Z,20.90
2018-04-15T01:06:57.199Z,20.83
2018-04-15T01:09:24.793Z,20.43
2018-04-15T01:11:52.627Z,21.10
2018-04-15T01:14:20.862Z,21.37
2018-04-15T01:16:48.517Z,20.87
2018-04-15T01:19:16.148Z,21.63
2018-04-15T01:21:43.743Z,20.40
2018-04-15T01:24:11.350Z,21.63
2018-04-15T01:26:38.998Z,21.60
2018-04-15T01:29:07.712Z,20.93
2018-04-15T01:31:35.322Z,21.23
2018-04-15T01:34:03.077Z,21.13
2018-04-15T01:36:30.663Z,21.40
2018-04-15T01:38:59.153Z,20.90
2018-04-15T01:41:26.886Z,20.77
2018-04-15T01:43:54.486Z,21.53
2018-04-15T01:46:22.082Z,20.60
2018-04-15T01:48:49.776Z,21.27
2018-04-15T01:51:17.379Z,21.63
2018-04-15T01:53:45.001Z,21.17
2018-04-15T01:56:12.633Z,24.03
2018-04-15T01:58:40.222Z,21.87
2018-04-15T02:01:07.811Z,23.03
2018-04-15T02:03:35.451Z,22.07
2018-04-15T02:06:03.100Z,22.20
2018-04-15T02:08:30.761Z,22.30
2018-04-15T02:10:58.491Z,22.37
2018-04-15T02:13:27.277Z,22.70
2018-04-15T02:15:54.918Z,22.47
2018-04-15T02:18:22.611Z,21.07
2018-04-15T02:20:50.211Z,22.73
2018-04-15T02:23:17.796Z,22.67
2018-04-15T02:25:45.560Z,21.87
2018-04-15T02:28:13.201Z,22.57
2018-04-15T02:30:40.804Z,22.17
2018-04-15T02:33:08.424Z,22.00
2018-04-15T02:35:36.019Z,21.73
2018-04-15T02:38:03.668Z,21.60
2018-04-15T02:40:31.488Z,20.60
2018-04-15T02:42:59.124Z,19.70
2018-04-15T02:45:26.736Z,21.07
2018-04-15T02:47:54.377Z,22.77
2018-04-15T02:50:21.970Z,21.90
2018-04-15T02:52:49.603Z,22.37
2018-04-15T02:55:17.256Z,22.03
2018-04-15T02:57:44.851Z,22.33
2018-04-15T03:00:12.440Z,21.93
2018-04-15T03:02:40.160Z,22.60
2018-04-15T03:05:07.747Z,20.93
2018-04-15T03:07:35.396Z,21.57
2018-04-15T03:10:03.182Z,22.17
2018-04-15T03:12:30.824Z,22.33
2018-04-15T03:14:58.539Z,22.70
2018-04-15T03:17:26.255Z,22.07
2018-04-15T03:19:53.837Z,23.23
2018-04-15T03:22:21.485Z,23.93
2018-04-15T03:24:49.213Z,22.00
2018-04-15T03:27:16.810Z,22.40
2018-04-15T03:29:44.436Z,22.80
2018-04-15T03:32:12.063Z,23.03
2018-04-15T03:34:39.752Z,24.30
2018-04-15T03:37:07.363Z,23.47
2018-04-15T03:39:35.149Z,22.60
2018-04-15T03:42:02.866Z,24.73
2018-04-15T03:44:30.510Z,25.23
2018-04-15T03:46:58.250Z,25.63
2018-04-15T03:49:25.913Z,25.23
2018-04-15T03:51:53.749Z,27.93
2018-04-15T03:54:22.247Z,28.57
2018-04-15T03:56:49.822Z,27.40
2018-04-15T03:59:17.407Z,27.83
2018-04-15T04:01:45.170Z,28.10
2018-04-15T04:04:12.748Z,29.00
2018-04-15T04:06:40.336Z,28.97
2018-04-15T04:09:07.983Z,31.23
2018-04-15T04:11:35.568Z,30.00
2018-04-15T04:14:03.216Z,30.53
2018-04-15T04:16:31.175Z,29.97
2018-04-15T04:19:10.641Z,28.63
2018-04-15T04:21:50.036Z,31.07
2018-04-15T04:24:29.547Z,29.07
2018-04-15T04:26:57.180Z,28.80
2018-04-15T04:29:24.825Z,29.87
2018-04-15T04:31:52.404Z,29.47
2018-04-15T04:34:20.185Z,28.07
2018-04-15T04:36:47.825Z,26.80
2018-04-15T04:39:15.460Z,27.90
2018-04-15T04:41:43.098Z,29.00
2018-04-15T04:44:10.680Z,26.73
2018-04-15T04:46:38.316Z,27.27
2018-04-15T04:49:06.504Z,25.97
2018-04-15T04:51:34.144Z,27.63
2018-04-15T04:54:01.805Z,26.40
2018-04-15T04:56:29.502Z,27.50
2018-04-15T04:58:57.093Z,29.00
2018-04-15T05:01:24.744Z,31.97
2018-04-15T05:03:52.470Z,29.40
2018-04-15T05:06:20.140Z,29.80
2018-04-15T05:08:47.731Z,31.63
2018-04-15T05:11:15.541Z,32.00
2018-04-15T05:13:43.136Z,31.00
2018-04-15T05:16:10.708Z,31.73
2018-04-15T05:18:38.980Z,35.47
2018-04-15T05:21:06.573Z,32.43
2018-04-15T05:23:34.168Z,44.70
2018-04-15T05:26:02.190Z,30.63
2018-04-15T05:28:30.148Z,32.97
2018-04-15T05:30:57.737Z,33.77
2018-04-15T05:33:26.268Z,31.13
2018-04-15T05:35:54.619Z,30.70
2018-04-15T05:38:22.212Z,29.53
2018-04-15T05:40:50.168Z,28.87
2018-04-15T05:43:17.757Z,27.80
2018-04-15T05:45:45.347Z,28.23
2018-04-15T05:48:12.973Z,29.57
2018-04-15T05:50:40.571Z,27.07
2018-04-15T05:53:08.162Z,29.13
2018-04-15T05:55:35.954Z,28.30
2018-04-15T05:58:03.540Z,26.30
2018-04-15T06:00:31.189Z,24.97
2018-04-15T06:02:58.820Z,27.43
2018-04-15T06:05:26.540Z,29.70
2018-04-15T06:07:54.166Z,28.47
2018-04-15T06:10:21.850Z,28.07
2018-04-15T06:12:49.499Z,27.30
2018-04-15T06:15:17.095Z,27.13
2018-04-15T06:17:45.581Z,26.40
2018-04-15T06:20:14.295Z,26.63
2018-04-15T06:22:46.360Z,27.13
2018-04-15T06:25:15.637Z,26.77
2018-04-15T06:27:44.072Z,28.47
2018-04-15T06:30:12.691Z,28.13
2018-04-15T06:32:40.317Z,27.37
2018-04-15T06:35:07.916Z,26.57
2018-04-15T06:37:36.475Z,25.60
2018-04-15T06:40:04.149Z,26.37
2018-04-15T06:42:31.810Z,27.50
2018-04-15T06:44:59.484Z,29.03
2018-04-15T06:47:27.074Z,27.87
2018-04-15T06:49:54.673Z,28.47
2018-04-15T06:52:22.296Z,27.40
2018-04-15T06:54:49.880Z,28.73
2018-04-15T06:57:17.480Z,28.17
2018-04-15T06:59:45.184Z,27.40
2018-04-15T07:02:12.763Z,29.90
2018-04-15T07:04:40.350Z,28.23
2018-04-15T07:07:08.055Z,28.67
2018-04-15T07:09:35.700Z,31.80
2018-04-15T07:12:03.369Z,28.07
2018-04-15T07:14:31.079Z,27.03
2018-04-15T07:16:58.753Z,30.33
2018-04-15T07:19:26.332Z,28.70
2018-04-15T07:21:54.266Z,28.33
2018-04-15T07:24:21.892Z,28.50
2018-04-15T07:26:49.485Z,30.77
2018-04-15T07:29:17.231Z,28.40
2018-04-15T07:31:44.882Z,28.90
2018-04-15T07:34:12.496Z,28.47
2018-04-15T07:36:40.188Z,28.33
2018-04-15T07:39:07.779Z,29.33
2018-04-15T07:41:35.403Z,28.63
2018-04-15T07:44:03.055Z,29.77
2018-04-15T07:46:30.717Z,25.93
2018-04-15T07:48:58.935Z,25.83
2018-04-15T07:51:26.568Z,31.17
2018-04-15T07:53:54.227Z,27.17
2018-04-15T07:56:21.906Z,27.60
2018-04-15T07:58:52.097Z,33.87
2018-04-15T08:01:19.838Z,34.13
2018-04-15T08:03:47.421Z,27.77
2018-04-15T08:06:15.150Z,27.87
2018-04-15T08:08:42.795Z,26.27
2018-04-15T08:11:11.220Z,28.30
2018-04-15T08:13:38.864Z,27.77
2018-04-15T08:16:06.521Z,31.47
2018-04-15T08:18:34.113Z,27.27
2018-04-15T08:21:01.908Z,29.93
2018-04-15T08:23:29.859Z,30.37
2018-04-15T08:25:57.448Z,30.43
2018-04-15T08:28:25.082Z,30.07
2018-04-15T08:30:52.755Z,28.50
2018-04-15T08:33:20.374Z,29.03
2018-04-15T08:35:48.025Z,27.27
2018-04-15T08:38:15.669Z,27.83
2018-04-15T08:40:43.261Z,28.73
2018-04-15T08:43:11.019Z,27.37
2018-04-15T08:45:38.658Z,28.67
2018-04-15T08:48:06.240Z,29.37
2018-04-15T08:50:33.871Z,27.63
2018-04-15T08:53:01.479Z,28.60
2018-04-15T08:55:29.128Z,28.30
2018-04-15T08:57:56.779Z,28.37
2018-04-15T09:00:24.379Z,29.97
2018-04-15T09:02:51.955Z,30.27
2018-04-15T09:05:20.115Z,29.37
2018-04-15T09:07:47.703Z,30.97
2018-04-15T09:10:15.339Z,30.27
2018-04-15T09:12:43.100Z,30.10
2018-04-15T09:15:10.749Z,30.17
2018-04-15T09:17:38.390Z,30.57
2018-04-15T09:20:06.120Z,32.07
2018-04-15T09:22:33.708Z,31.13
2018-04-15T09:25:01.387Z,31.80
2018-04-15T09:27:29.103Z,32.27
2018-04-15T09:29:56.713Z,31.97
2018-04-15T09:32:24.364Z,31.20
2018-04-15T09:34:52.044Z,32.03
2018-04-15T09:37:19.646Z,31.50
2018-04-15T09:39:47.290Z,31.97
2018-04-15T09:42:15.030Z,32.67
2018-04-15T09:44:42.718Z,32.57
2018-04-15T09:47:10.321Z,32.63
2018-04-15T09:49:37.965Z,33.57
2018-04-15T09:52:05.577Z,33.90
2018-04-15T09:54:33.165Z,34.17
2018-04-15T09:57:00.891Z,33.43
2018-04-15T09:59:28.468Z,52.40
2018-04-15T10:01:56.060Z,35.20
2018-04-15T10:04:24.089Z,38.47
2018-04-15T10:06:51.724Z,35.00
2018-04-15T10:09:19.397Z,33.60
2018-04-15T10:11:47.808Z,35.03
2018-04-15T10:14:15.392Z,34.23
2018-04-15T10:16:42.984Z,32.50
2018-04-15T10:19:11.286Z,35.43
2018-04-15T10:21:38.916Z,33.93
2018-04-15T10:24:06.661Z,31.43
2018-04-15T10:26:34.420Z,32.90
2018-04-15T10:29:02.006Z,31.77
2018-04-15T10:31:29.648Z,29.60
2018-04-15T10:33:57.432Z,29.90
2018-04-15T10:36:25.024Z,28.87
2018-04-15T10:38:52.672Z,29.30
2018-04-15T10:41:20.364Z,29.50
2018-04-15T10:43:47.956Z,29.77
2018-04-15T10:46:16.149Z,27.37
2018-04-15T10:48:43.781Z,27.90
2018-04-15T10:51:11.364Z,26.07
2018-04-15T10:53:38.981Z,25.97
2018-04-15T10:56:06.708Z,25.33
2018-04-15T10:58:34.291Z,26.17
2018-04-15T11:01:01.933Z,27.27
2018-04-15T11:03:29.740Z,26.53
2018-04-15T11:05:57.425Z,26.13
2018-04-15T11:08:25.010Z,24.43
2018-04-15T11:10:52.632Z,23.73
2018-04-15T11:13:20.223Z,24.10
2018-04-15T11:15:47.874Z,24.77
2018-04-15T11:18:15.517Z,23.50
2018-04-15T11:20:43.480Z,23.33
2018-04-15T11:23:11.084Z,22.77
2018-04-15T11:25:38.790Z,23.30
2018-04-15T11:28:06.609Z,22.67
2018-04-15T11:30:34.199Z,20.83
2018-04-15T11:33:01.852Z,20.33
2018-04-15T11:35:29.440Z,19.90
2018-04-15T11:37:57.056Z,20.87
2018-04-15T11:40:24.760Z,19.70
2018-04-15T11:42:53.114Z,19.70
2018-04-15T11:45:20.780Z,18.03
2018-04-15T11:47:48.584Z,19.63
2018-04-15T11:50:16.181Z,19.23
2018-04-15T11:52:43.768Z,18.83
2018-04-15T11:55:11.423Z,18.67
2018-04-15T11:57:39.011Z,18.35
2018-04-15T12:00:06.656Z,18.50
2018-04-15T12:02:34.401Z,19.00
2018-04-15T12:05:02.012Z,18.43
2018-04-15T12:07:29.610Z,17.77
2018-04-15T12:09:57.236Z,17.93
2018-04-15T12:12:24.880Z,16.63
2018-04-15T12:14:52.467Z,17.02
2018-04-15T12:17:20.250Z,16.83
2018-04-15T12:19:47.848Z,20.85
2018-04-15T12:22:15.444Z,17.02
2018-04-15T12:24:43.260Z,16.02
2018-04-15T12:27:10.848Z,14.80
2018-04-15T12:29:38.990Z,18.45
2018-04-15T12:32:06.633Z,17.75
2018-04-15T12:34:34.227Z,18.30
2018-04-15T12:37:01.829Z,17.45
2018-04-15T12:39:29.455Z,16.65
2018-04-15T12:41:57.040Z,15.83
2018-04-15T12:44:24.709Z,18.23
2018-04-15T12:46:52.414Z,18.60
2018-04-15T12:49:20.077Z,18.73
2018-04-15T12:51:47.668Z,17.33
2018-04-15T12:54:15.386Z,16.83
2018-04-15T12:56:42.969Z,18.00
2018-04-15T12:59:10.556Z,15.47
2018-04-15T13:01:38.276Z,16.13
2018-04-15T13:04:05.874Z,15.37
2018-04-15T13:06:33.463Z,15.80
2018-04-15T13:09:01.308Z,14.73
2018-04-15T13:11:28.886Z,17.60
2018-04-15T13:13:56.544Z,17.27
2018-04-15T13:16:24.256Z,17.27
2018-04-15T13:18:51.897Z,18.30
2018-04-15T13:21:19.604Z,18.47
2018-04-15T13:23:48.124Z,17.03
2018-04-15T13:26:15.848Z,17.00
2018-04-15T13:28:43.517Z,16.40
2018-04-15T13:31:11.348Z,16.60
2018-04-15T13:33:38.948Z,15.87
2018-04-15T13:36:06.573Z,16.17
2018-04-15T13:38:34.202Z,15.57
2018-04-15T13:41:01.820Z,16.80
2018-04-15T13:43:29.428Z,14.90
2018-04-15T13:45:57.156Z,15.77
2018-04-15T13:48:24.819Z,14.97
2018-04-15T13:50:52.435Z,14.37
2018-04-15T13:53:20.161Z,13.40
2018-04-15T13:55:47.811Z,12.50
2018-04-15T13:58:15.411Z,13.17
2018-04-15T14:00:43.046Z,13.33
2018-04-15T14:03:10.758Z,13.53
2018-04-15T14:05:38.385Z,13.67
2018-04-15T14:08:06.113Z,15.20
2018-04-15T14:10:33.737Z,14.93
2018-04-15T14:13:01.447Z,14.60
2018-04-15T14:15:29.106Z,15.80
2018-04-15T14:17:56.756Z,15.07
2018-04-15T14:20:24.341Z,16.50
2018-04-15T14:22:52.147Z,16.47
2018-04-15T14:25:19.871Z,15.43
2018-04-15T14:27:47.452Z,16.57
2018-04-15T14:30:15.137Z,15.70
2018-04-15T14:32:42.924Z,15.87
2018-04-15T14:35:10.543Z,15.03
2018-04-15T14:37:38.176Z,14.63
2018-04-15T14:40:05.777Z,15.30
2018-04-15T14:42:34.267Z,14.30
2018-04-15T14:45:01.990Z,14.93
2018-04-15T14:47:29.581Z,14.50
2018-04-15T14:49:57.187Z,14.93
2018-04-15T14:52:26.943Z,15.17
2018-04-15T14:54:54.931Z,15.37
2018-04-15T14:57:22.615Z,15.20
2018-04-15T14:59:50.352Z,15.43
2018-04-15T15:02:17.962Z,15.40
2018-04-15T15:04:45.654Z,14.80
2018-04-15T15:07:13.300Z,14.73
2018-04-15T15:09:40.926Z,14.60
2018-04-15T15:12:08.541Z,15.40
2018-04-15T15:14:36.184Z,15.20
2018-04-15T15:17:03.787Z,16.07
2018-04-15T15:19:31.460Z,15.43
2018-04-15T15:21:59.144Z,15.70
2018-04-15T15:24:27.860Z,13.87
2018-04-15T15:26:55.459Z,15.33
2018-04-15T15:29:23.088Z,14.87
2018-04-15T15:31:50.703Z,15.17
2018-04-15T15:34:20.064Z,15.70
2018-04-15T15:36:47.716Z,14.33
2018-04-15T15:39:15.350Z,14.93
2018-04-15T15:41:43.005Z,15.37
2018-04-15T15:44:10.705Z,15.87
2018-04-15T15:46:38.373Z,15.23
2018-04-15T15:49:06.032Z,16.40
2018-04-15T15:51:33.761Z,18.23
2018-04-15T15:54:01.411Z,15.43
2018-04-15T15:56:29.022Z,15.37
2018-04-15T15:58:56.753Z,15.33
2018-04-15T16:01:24.365Z,16.63
2018-04-15T16:03:52.077Z,17.03
2018-04-15T16:06:19.713Z,16.67
2018-04-15T16:08:47.306Z,15.80
2018-04-15T16:11:14.981Z,15.43
2018-04-15T16:13:43.682Z,17.07
2018-04-15T16:16:11.285Z,16.23
2018-04-15T16:18:38.881Z,16.53
2018-04-15T16:21:06.529Z,16.33
2018-04-15T16:23:34.233Z,16.37
2018-04-15T16:26:01.833Z,17.57
2018-04-15T16:28:29.552Z,17.13
2018-04-15T16:30:57.217Z,17.43
2018-04-15T16:33:24.875Z,17.77
2018-04-15T16:35:59.504Z,16.70
2018-04-15T16:38:27.343Z,16.77
2018-04-15T16:40:55.013Z,16.07
2018-04-15T16:43:22.777Z,16.60
2018-04-15T16:45:50.427Z,16.87
2018-04-15T16:48:18.077Z,16.87
2018-04-15T16:50:45.795Z,16.73
2018-04-15T16:53:13.456Z,18.23
2018-04-15T16:55:41.123Z,17.70
2018-04-15T16:58:08.854Z,17.67
2018-04-15T17:00:36.452Z,17.97
2018-04-15T17:03:04.142Z,18.27
2018-04-15T17:05:31.844Z,17.83
2018-04-15T17:07:59.500Z,19.10
2018-04-15T17:10:27.160Z,18.43
2018-04-15T17:12:54.974Z,18.47
2018-04-15T17:15:23.384Z,18.40
2018-04-15T17:17:50.981Z,18.73
2018-04-15T17:20:18.661Z,18.23
2018-04-15T17:22:46.268Z,19.57
2018-04-15T17:25:13.865Z,18.33
2018-04-15T17:27:41.600Z,18.30
2018-04-15T17:30:09.201Z,19.33
2018-04-15T17:32:36.796Z,18.83
2018-04-15T17:35:04.456Z,19.27
2018-04-15T17:37:32.402Z,18.77
2018-04-15T17:39:59.996Z,18.90
2018-04-15T17:42:27.801Z,18.17
2018-04-15T17:44:55.495Z,20.30
2018-04-15T17:47:23.165Z,19.77
2018-04-15T17:49:50.885Z,19.00
2018-04-15T17:52:18.542Z,18.33
2018-04-15T17:54:46.188Z,17.87
2018-04-15T17:57:14.032Z,17.70
2018-04-15T17:59:41.725Z,17.73
2018-04-15T18:02:09.344Z,22.73
2018-04-15T18:04:37.141Z,29.43
2018-04-15T18:07:04.791Z,23.33
2018-04-15T18:09:32.410Z,20.10
2018-04-15T18:12:00.200Z,17.43
2018-04-15T18:14:27.844Z,18.47
2018-04-15T18:16:55.519Z,19.67
2018-04-15T18:19:23.180Z,18.93
2018-04-15T18:21:51.472Z,18.73
2018-04-15T18:24:19.086Z,18.67
2018-04-15T18:26:46.812Z,18.43
2018-04-15T18:29:14.401Z,18.80
2018-04-15T18:31:42.104Z,19.67
2018-04-15T18:34:09.905Z,18.30
2018-04-15T18:36:37.535Z,18.00
2018-04-15T18:39:06.200Z,18.00
2018-04-15T18:41:33.838Z,17.50
2018-04-15T18:44:01.522Z,17.67
2018-04-15T18:46:29.202Z,17.37
2018-04-15T18:48:56.989Z,17.43
2018-04-15T18:51:24.571Z,17.57
2018-04-15T18:53:52.148Z,18.07
2018-04-15T18:56:19.785Z,17.70
2018-04-15T18:58:47.380Z,17.40
2018-04-15T19:01:15.005Z,17.70
2018-04-15T19:03:42.696Z,17.20
2018-04-15T19:06:10.369Z,17.70
2018-04-15T19:08:38.009Z,16.47
2018-04-15T19:11:05.818Z,15.50
2018-04-15T19:13:33.493Z,15.63
2018-04-15T19:16:01.100Z,15.17
2018-04-15T19:18:29.287Z,15.97
2018-04-15T19:20:56.885Z,15.43
2018-04-15T19:23:24.552Z,15.03
2018-04-15T19:25:52.278Z,15.47
2018-04-15T19:28:19.875Z,14.73
2018-04-15T19:30:47.480Z,14.83
2018-04-15T19:33:15.195Z,14.67
2018-04-15T19:35:42.779Z,14.83
2018-04-15T19:38:10.360Z,15.37
2018-04-15T19:40:38.248Z,16.23
2018-04-15T19:43:05.895Z,19.47
2018-04-15T19:45:33.524Z,22.60
2018-04-15T19:48:01.176Z,16.43
2018-04-15T19:50:28.856Z,15.43
2018-04-15T19:52:56.440Z,14.90
2018-04-15T19:55:24.111Z,15.53
2018-04-15T19:57:51.731Z,14.80
2018-04-15T20:00:19.316Z,20.87
2018-04-15T20:02:47.055Z,15.50
2018-04-15T20:05:14.670Z,15.27
2018-04-15T20:07:42.332Z,14.33
2018-04-15T20:10:09.956Z,14.50
2018-04-15T20:12:37.640Z,15.07
2018-04-15T20:15:05.244Z,15.00
2018-04-15T20:17:33.073Z,15.37
2018-04-15T20:20:00.720Z,15.77
2018-04-15T20:22:28.459Z,15.27
2018-04-15T20:24:56.105Z,15.33
2018-04-15T20:27:23.696Z,16.47
2018-04-15T20:29:51.408Z,18.60
2018-04-15T20:32:19.160Z,21.17
2018-04-15T20:34:46.752Z,17.10
2018-04-15T20:37:14.353Z,16.07
2018-04-15T20:39:42.172Z,14.67
2018-04-15T20:42:10.369Z,14.73
2018-04-15T20:44:38.045Z,16.10
2018-04-15T20:47:05.731Z,14.60
2018-04-15T20:49:33.385Z,15.10
2018-04-15T20:52:00.981Z,14.93
2018-04-15T20:54:28.694Z,15.97
2018-04-15T20:56:56.312Z,15.43
2018-04-15T20:59:23.968Z,16.98
2018-04-15T21:01:52.384Z,15.87
2018-04-15T21:04:20.057Z,15.23
2018-04-15T21:06:47.682Z,16.13
2018-04-15T21:09:15.328Z,15.83
2018-04-15T21:11:43.803Z,15.30
2018-04-15T21:14:11.381Z,15.80
2018-04-15T21:16:39.072Z,15.33
2018-04-15T21:19:06.666Z,14.90
2018-04-15T21:21:34.265Z,15.47
2018-04-15T21:24:02.028Z,14.33
2018-04-15T21:26:29.685Z,13.73
2018-04-15T21:28:57.277Z,13.90
2018-04-15T21:31:24.916Z,14.03
2018-04-15T21:33:52.581Z,14.37
2018-04-15T21:36:20.236Z,14.43
2018-04-15T21:41:25.196Z,14.80
2018-04-15T21:43:52.910Z,14.13
2018-04-15T21:46:21.357Z,14.40
2018-04-15T21:48:49.379Z,14.83
2018-04-15T21:51:16.979Z,15.00
2018-04-15T21:53:44.587Z,15.40
2018-04-15T21:56:12.243Z,14.67
2018-04-15T21:58:39.836Z,16.10
2018-04-15T22:01:07.427Z,15.67
2018-04-15T22:03:35.126Z,15.23
2018-04-15T22:06:02.791Z,15.40
2018-04-15T22:08:30.389Z,14.00
2018-04-15T22:10:58.056Z,14.93
2018-04-15T22:13:25.725Z,14.97
2018-04-15T22:15:53.300Z,15.33
2018-04-15T22:18:21.036Z,14.03
2018-04-15T22:20:48.727Z,15.33
2018-04-15T22:23:16.372Z,15.47
2018-04-15T22:25:44.100Z,15.17
2018-04-15T22:28:11.692Z,14.90
2018-04-15T22:30:39.349Z,14.77
2018-04-15T22:33:07.074Z,14.97
2018-04-15T22:35:34.732Z,15.37
2018-04-15T22:38:02.409Z,15.37
2018-04-15T22:40:30.304Z,15.70
2018-04-15T22:42:57.950Z,15.27
2018-04-15T22:45:25.789Z,14.77
2018-04-15T22:47:59.315Z,15.90
2018-04-15T22:50:32.415Z,15.40
2018-04-15T22:53:00.186Z,14.93
2018-04-15T22:55:27.779Z,14.63
2018-04-15T22:57:55.392Z,14.40
2018-04-15T23:00:23.069Z,14.30
2018-04-15T23:02:50.682Z,14.23
2018-04-15T23:05:18.284Z,14.37
2018-04-15T23:07:46.016Z,14.40
2018-04-15T23:10:13.613Z,14.00
2018-04-15T23:12:41.322Z,13.77
2018-04-15T23:15:08.952Z,14.10
2018-04-15T23:17:36.641Z,14.17
2018-04-15T23:20:05.055Z,14.13
2018-04-15T23:22:33.659Z,14.30
2018-04-15T23:25:01.292Z,14.77
2018-04-15T23:27:28.887Z,14.57
2018-04-15T23:29:56.541Z,14.07
2018-04-15T23:32:24.202Z,14.00
2018-04-15T23:34:51.853Z,14.87
2018-04-15T23:37:19.600Z,14.13
2018-04-15T23:39:47.297Z,14.37
2018-04-15T23:42:14.957Z,13.73
2018-04-15T23:44:42.625Z,13.97
2018-04-15T23:47:11.248Z,13.43
2018-04-15T23:49:38.840Z,14.00
2018-04-15T23:52:06.508Z,14.10
2018-04-15T23:54:34.199Z,13.53
2018-04-15T23:57:01.861Z,13.73
2018-04-15T23:59:29.696Z,14.17
